createdAt,value
2023-04-19T00:00:02.224Z,91
2023-04-19T00:16:04.432Z,90
2023-04-19T00:31:01.678Z,90
2023-04-19T00:46:03.684Z,90
2023-04-19T01:00:00.824Z,90
2023-04-19T01:16:02.984Z,90
2023-04-19T01:31:00.121Z,90
2023-04-19T01:46:02.404Z,90
2023-04-19T02:00:04.304Z,90
2023-04-19T02:16:01.533Z,90
2023-04-19T02:31:00.995Z,90
2023-04-19T02:46:00.872Z,90
2023-04-19T03:00:02.830Z,90
2023-04-19T03:16:00.206Z,89
2023-04-19T03:31:02.154Z,89
2023-04-19T03:46:04.482Z,89
2023-04-19T04:00:01.391Z,88
2023-04-19T04:16:03.629Z,88
2023-04-19T04:31:00.405Z,88
2023-04-19T04:46:02.796Z,88
2023-04-19T04:59:59.816Z,89
2023-04-19T05:16:02.301Z,89
2023-04-19T05:31:04.635Z,89
2023-04-19T05:46:01.868Z,89
2023-04-19T06:00:03.773Z,88
2023-04-19T06:16:01.119Z,87
2023-04-19T06:31:03.350Z,86
2023-04-19T06:46:00.548Z,82
2023-04-19T07:00:02.397Z,79
2023-04-19T07:16:04.377Z,73
2023-04-19T07:31:03.460Z,71
2023-04-19T07:46:03.332Z,71
2023-04-19T08:00:00.280Z,69
2023-04-19T08:17:42.989Z,66
2023-04-19T08:30:59.706Z,67
2023-04-19T08:46:02.102Z,61
2023-04-19T09:00:03.985Z,62
2023-04-19T09:16:01.357Z,59
2023-04-19T09:31:10.935Z,59
2023-04-19T09:46:00.619Z,54
2023-04-19T10:00:02.651Z,55
2023-04-19T10:16:11.620Z,57
2023-04-19T10:31:01.912Z,60
2023-04-19T10:46:04.108Z,61
2023-04-19T11:00:01.174Z,60
2023-04-19T11:16:03.491Z,60
2023-04-19T11:31:00.665Z,55
2023-04-19T11:46:03.049Z,55
2023-04-19T12:00:00.104Z,55
2023-04-19T12:16:02.582Z,60
2023-04-19T12:31:00.630Z,59
2023-04-19T12:46:01.895Z,59
2023-04-19T13:00:06.422Z,58
2023-04-19T13:16:01.717Z,59
2023-04-19T13:31:03.688Z,62
2023-04-19T13:46:00.817Z,65
2023-04-19T14:00:02.814Z,66
2023-04-19T14:16:00.360Z,68
2023-04-19T14:31:02.277Z,66
2023-04-19T14:46:04.461Z,64
2023-04-19T15:00:01.494Z,61
2023-04-19T15:16:03.713Z,56
2023-04-19T15:31:00.933Z,57
2023-04-19T15:46:03.394Z,58
2023-04-19T16:00:04.683Z,59
2023-04-19T16:16:01.908Z,62
2023-04-19T16:31:04.106Z,63
2023-04-19T16:46:01.258Z,64
2023-04-19T17:00:03.185Z,63
2023-04-19T17:16:00.428Z,65
2023-04-19T17:31:02.750Z,71
2023-04-19T17:45:59.945Z,75
2023-04-19T18:00:02.120Z,77
2023-04-19T18:16:04.308Z,82
2023-04-19T18:31:01.618Z,84
2023-04-19T18:46:03.833Z,86
2023-04-19T19:00:00.899Z,87
2023-04-19T19:16:00.580Z,88
2023-04-19T19:31:00.571Z,89
2023-04-19T19:46:02.584Z,90
2023-04-19T20:00:22.833Z,90
2023-04-19T20:16:01.761Z,91
2023-04-19T20:31:03.939Z,91
2023-04-19T20:46:01.122Z,91
2023-04-19T21:00:03.353Z,92
2023-04-19T21:16:00.586Z,92
2023-04-19T21:31:02.783Z,92
2023-04-19T21:46:02.369Z,92
2023-04-19T22:00:02.220Z,92
2023-04-19T22:16:04.415Z,93
2023-04-19T22:31:01.659Z,93
2023-04-19T22:46:03.997Z,93
2023-04-19T23:00:00.972Z,92
2023-04-19T23:16:03.349Z,92
2023-04-19T23:31:00.639Z,91
2023-04-19T23:46:02.913Z,92
2023-04-19T23:59:59.894Z,92
